createdAt,value
2023-10-29T00:00:46.693Z,12.60
2023-10-29T00:01:46.797Z,12.60
2023-10-29T00:02:47.653Z,12.60
2023-10-29T00:03:46.692Z,12.60
2023-10-29T00:04:46.858Z,12.60
2023-10-29T00:05:46.720Z,12.60
2023-10-29T00:06:46.563Z,12.60
2023-10-29T00:07:47.562Z,12.60
2023-10-29T00:08:46.593Z,12.60
2023-10-29T00:09:46.548Z,12.60
2023-10-29T00:10:46.582Z,12.59
2023-10-29T00:11:46.572Z,12.59
2023-10-29T00:12:47.534Z,12.59
2023-10-29T00:13:48.206Z,12.59
2023-10-29T00:14:46.794Z,12.59
2023-10-29T00:15:46.476Z,12.59
2023-10-29T00:16:46.464Z,12.59
2023-10-29T00:17:46.538Z,12.59
2023-10-29T00:18:47.383Z,12.59
2023-10-29T00:19:46.448Z,12.59
2023-10-29T00:20:46.485Z,12.59
2023-10-29T00:21:46.822Z,12.59
2023-10-29T00:22:46.436Z,12.60
2023-10-29T00:23:47.334Z,12.59
2023-10-29T00:24:46.532Z,12.59
2023-10-29T00:25:46.356Z,12.58
2023-10-29T00:26:46.419Z,12.56
2023-10-29T00:27:46.622Z,12.55
2023-10-29T00:28:47.279Z,12.54
2023-10-29T00:29:46.344Z,12.53
2023-10-29T00:30:46.303Z,12.53
2023-10-29T00:31:46.257Z,12.52
2023-10-29T00:32:46.325Z,12.52
2023-10-29T00:33:47.173Z,12.52
2023-10-29T00:34:46.468Z,12.53
2023-10-29T00:35:46.231Z,12.53
2023-10-29T00:36:46.255Z,12.54
2023-10-29T00:37:46.253Z,12.55
2023-10-29T00:38:47.222Z,12.56
2023-10-29T00:39:46.490Z,12.57
2023-10-29T00:40:46.142Z,12.58
2023-10-29T00:41:46.444Z,12.59
2023-10-29T00:42:46.104Z,12.60
2023-10-29T00:43:46.116Z,12.61
2023-10-29T00:44:47.259Z,12.62
2023-10-29T00:45:46.113Z,12.63
2023-10-29T00:46:46.086Z,12.64
2023-10-29T00:47:46.123Z,12.65
2023-10-29T00:48:46.067Z,12.66
2023-10-29T00:49:46.994Z,12.67
2023-10-29T00:50:46.253Z,12.68
2023-10-29T00:51:46.243Z,12.68
2023-10-29T00:52:45.976Z,12.69
2023-10-29T00:53:46.135Z,12.70
2023-10-29T00:54:46.155Z,12.70
2023-10-29T00:55:46.975Z,12.70
2023-10-29T00:56:45.964Z,12.71
2023-10-29T00:57:46.002Z,12.71
2023-10-29T00:58:45.958Z,12.72
2023-10-29T00:59:45.927Z,12.72
2023-10-29T01:00:46.893Z,12.73
2023-10-29T01:01:46.165Z,12.73
2023-10-29T01:02:45.969Z,12.73
2023-10-29T01:03:45.970Z,12.74
2023-10-29T01:04:46.028Z,12.74
2023-10-29T01:05:46.808Z,12.74
2023-10-29T01:06:45.849Z,12.75
2023-10-29T01:07:45.801Z,12.76
2023-10-29T01:08:46.064Z,12.76
2023-10-29T01:09:45.854Z,12.76
2023-10-29T01:10:45.840Z,12.77
2023-10-29T01:11:46.823Z,12.77
2023-10-29T01:12:45.786Z,12.77
2023-10-29T01:13:45.725Z,12.76
2023-10-29T01:14:45.992Z,12.76
2023-10-29T01:15:45.813Z,12.75
2023-10-29T01:16:46.685Z,12.75
2023-10-29T01:17:45.813Z,12.74
2023-10-29T01:18:45.740Z,12.74
2023-10-29T01:19:45.757Z,12.74
2023-10-29T01:20:45.772Z,12.74
2023-10-29T01:21:45.655Z,12.75
2023-10-29T01:22:46.601Z,12.75
2023-10-29T01:23:45.687Z,12.75
2023-10-29T01:24:45.751Z,12.75
2023-10-29T01:25:45.562Z,12.76
2023-10-29T01:26:45.763Z,12.76
2023-10-29T01:27:45.590Z,12.77
2023-10-29T01:28:47.185Z,12.77
2023-10-29T01:29:45.685Z,12.78
2023-10-29T01:30:45.522Z,12.78
2023-10-29T01:31:45.480Z,12.78
2023-10-29T01:32:45.673Z,12.78
2023-10-29T01:33:46.403Z,12.78
2023-10-29T01:34:45.729Z,12.78
2023-10-29T01:35:45.470Z,12.78
2023-10-29T01:36:45.513Z,12.78
2023-10-29T01:37:45.451Z,12.79
2023-10-29T01:38:46.416Z,12.79
2023-10-29T01:39:45.529Z,12.79
2023-10-29T01:40:45.528Z,12.80
2023-10-29T01:41:45.518Z,12.80
2023-10-29T01:42:45.355Z,12.81
2023-10-29T01:43:46.258Z,12.81
2023-10-29T01:44:45.399Z,12.81
2023-10-29T01:45:45.355Z,12.82
2023-10-29T01:46:45.366Z,12.82
2023-10-29T01:47:45.581Z,12.83
2023-10-29T01:48:45.306Z,12.83
2023-10-29T01:49:46.308Z,12.83
2023-10-29T01:50:45.328Z,12.83
2023-10-29T01:51:45.558Z,12.84
2023-10-29T01:52:45.301Z,12.85
2023-10-29T01:53:45.337Z,12.85
2023-10-29T01:54:45.541Z,12.86
2023-10-29T01:55:46.210Z,12.86
2023-10-29T01:56:45.258Z,12.87
2023-10-29T01:57:45.416Z,12.87
2023-10-29T01:58:45.202Z,12.87
2023-10-29T01:59:45.245Z,12.87
2023-10-29T02:00:46.278Z,12.87
2023-10-29T02:01:45.162Z,12.87
2023-10-29T02:02:45.308Z,12.87
2023-10-29T02:03:45.186Z,12.86
2023-10-29T02:04:45.083Z,12.86
2023-10-29T02:05:45.122Z,12.85
2023-10-29T02:06:45.971Z,12.84
2023-10-29T02:07:45.189Z,12.84
2023-10-29T02:08:45.105Z,12.83
2023-10-29T02:09:45.083Z,12.83
2023-10-29T02:10:45.051Z,12.83
2023-10-29T02:11:45.041Z,12.82
2023-10-29T02:12:45.926Z,12.82
2023-10-29T02:13:45.053Z,12.82
2023-10-29T02:14:45.208Z,12.82
2023-10-29T02:15:44.956Z,12.82
2023-10-29T02:16:44.942Z,12.82
2023-10-29T02:17:45.879Z,12.82
2023-10-29T02:18:44.904Z,12.82
2023-10-29T02:19:44.953Z,12.82
2023-10-29T02:20:44.985Z,12.82
2023-10-29T02:21:45.071Z,12.82
2023-10-29T02:22:45.862Z,12.82
2023-10-29T02:23:44.860Z,12.82
2023-10-29T02:24:44.916Z,12.82
2023-10-29T02:25:44.809Z,12.82
2023-10-29T02:26:44.865Z,12.83
2023-10-29T02:27:45.744Z,12.83
2023-10-29T02:28:44.841Z,12.84
2023-10-29T02:29:45.044Z,12.84
2023-10-29T02:30:44.750Z,12.85
2023-10-29T02:31:45.012Z,12.85
2023-10-29T02:32:45.759Z,12.86
2023-10-29T02:33:44.771Z,12.86
2023-10-29T02:34:44.763Z,12.87
2023-10-29T02:35:44.843Z,12.87
2023-10-29T02:36:44.840Z,12.87
2023-10-29T02:37:45.665Z,12.88
2023-10-29T02:38:44.820Z,12.88
2023-10-29T02:39:44.625Z,12.88
2023-10-29T02:40:44.715Z,12.88
2023-10-29T02:41:44.711Z,12.87
2023-10-29T02:42:45.543Z,12.87
2023-10-29T02:43:44.644Z,12.87
2023-10-29T02:44:44.721Z,12.87
2023-10-29T02:45:44.653Z,12.86
2023-10-29T02:46:44.675Z,12.86
2023-10-29T02:47:44.708Z,12.85
2023-10-29T02:48:45.443Z,12.84
2023-10-29T02:49:44.579Z,12.83
2023-10-29T02:50:44.910Z,12.82
2023-10-29T02:51:44.590Z,12.81
2023-10-29T02:52:44.598Z,12.80
2023-10-29T02:53:44.507Z,12.79
2023-10-29T02:54:45.359Z,12.78
2023-10-29T02:55:44.831Z,12.77
2023-10-29T02:56:44.582Z,12.76
2023-10-29T02:57:44.643Z,12.76
2023-10-29T02:58:44.391Z,12.76
2023-10-29T02:59:45.474Z,12.76
2023-10-29T03:00:44.406Z,12.77
2023-10-29T03:01:44.352Z,12.77
2023-10-29T03:02:44.570Z,12.78
2023-10-29T03:03:44.469Z,12.78
2023-10-29T03:04:45.296Z,12.77
2023-10-29T03:05:54.208Z,12.76
2023-10-29T03:06:45.805Z,12.76
2023-10-29T03:07:44.417Z,12.75
2023-10-29T03:08:44.362Z,12.73
2023-10-29T03:09:45.335Z,12.73
2023-10-29T03:10:44.289Z,12.72
2023-10-29T03:11:44.255Z,12.70
2023-10-29T03:12:44.453Z,12.70
2023-10-29T03:13:44.233Z,12.68
2023-10-29T03:14:44.344Z,12.67
2023-10-29T03:15:45.163Z,12.67
2023-10-29T03:16:44.213Z,12.66
2023-10-29T03:17:44.467Z,12.66
2023-10-29T03:18:44.186Z,12.65
2023-10-29T03:19:44.143Z,12.64
2023-10-29T03:20:46.753Z,12.62
2023-10-29T03:21:45.088Z,12.60
2023-10-29T03:22:44.175Z,12.59
2023-10-29T03:23:44.212Z,12.57
2023-10-29T03:24:44.072Z,12.56
2023-10-29T03:25:44.190Z,12.55
2023-10-29T03:26:44.088Z,12.54
2023-10-29T03:27:45.011Z,12.54
2023-10-29T03:28:44.093Z,12.53
2023-10-29T03:29:44.141Z,12.52
2023-10-29T03:30:44.170Z,12.51
2023-10-29T03:31:44.006Z,12.51
2023-10-29T03:32:45.151Z,12.51
2023-10-29T03:33:43.970Z,12.51
2023-10-29T03:34:44.100Z,12.51
2023-10-29T03:35:44.001Z,12.52
2023-10-29T03:36:43.990Z,12.52
2023-10-29T03:37:44.866Z,12.52
2023-10-29T03:38:43.925Z,12.53
2023-10-29T03:39:43.927Z,12.54
2023-10-29T03:40:44.014Z,12.54
2023-10-29T03:41:43.931Z,12.55
2023-10-29T03:42:44.822Z,12.55
2023-10-29T03:43:43.854Z,12.55
2023-10-29T03:44:43.905Z,12.55
2023-10-29T03:45:43.848Z,12.55
2023-10-29T03:46:43.983Z,12.54
2023-10-29T03:47:44.112Z,12.54
2023-10-29T03:48:44.815Z,12.54
2023-10-29T03:49:43.790Z,12.54
2023-10-29T03:50:43.793Z,12.54
2023-10-29T03:51:43.755Z,12.54
2023-10-29T03:52:43.756Z,12.53
2023-10-29T03:53:44.771Z,12.53
2023-10-29T03:54:43.774Z,12.54
2023-10-29T03:55:43.691Z,12.54
2023-10-29T03:56:43.706Z,12.54
2023-10-29T03:57:43.692Z,12.54
2023-10-29T03:58:50.054Z,12.54
2023-10-29T03:59:43.668Z,12.54
2023-10-29T04:00:43.649Z,12.54
2023-10-29T04:01:43.630Z,12.54
2023-10-29T04:02:43.999Z,12.54
2023-10-29T04:03:44.794Z,12.54
2023-10-29T04:04:47.976Z,12.55
2023-10-29T04:05:45.266Z,12.56
2023-10-29T04:06:43.592Z,12.57
2023-10-29T04:07:43.603Z,12.57
2023-10-29T04:08:44.530Z,12.58
2023-10-29T04:09:43.495Z,12.58
2023-10-29T04:10:43.517Z,12.59
2023-10-29T04:11:43.675Z,12.59
2023-10-29T04:12:43.465Z,12.59
2023-10-29T04:13:44.367Z,12.59
2023-10-29T04:14:43.572Z,12.59
2023-10-29T04:15:43.546Z,12.59
2023-10-29T04:16:43.480Z,12.59
2023-10-29T04:17:43.506Z,12.59
2023-10-29T04:18:44.326Z,12.59
2023-10-29T04:19:43.414Z,12.59
2023-10-29T04:20:43.427Z,12.59
2023-10-29T04:21:43.421Z,12.58
2023-10-29T04:22:43.367Z,12.58
2023-10-29T04:23:43.344Z,12.58
2023-10-29T04:24:44.302Z,12.58
2023-10-29T04:25:43.344Z,12.58
2023-10-29T04:26:43.448Z,12.58
2023-10-29T04:27:43.256Z,12.58
2023-10-29T04:28:43.357Z,12.59
2023-10-29T04:29:44.252Z,12.59
2023-10-29T04:30:43.435Z,12.60
2023-10-29T04:31:43.259Z,12.60
2023-10-29T04:32:43.231Z,12.60
2023-10-29T04:33:43.572Z,12.61
2023-10-29T04:34:43.200Z,12.61
2023-10-29T04:35:44.206Z,12.61
2023-10-29T04:36:43.231Z,12.61
2023-10-29T04:37:43.162Z,12.62
2023-10-29T04:38:43.216Z,12.62
2023-10-29T04:39:43.121Z,12.62
2023-10-29T04:40:44.190Z,12.62
2023-10-29T04:41:43.394Z,12.63
2023-10-29T04:42:43.116Z,12.63
2023-10-29T04:43:43.166Z,12.63
2023-10-29T04:44:43.222Z,12.63
2023-10-29T04:45:43.142Z,12.63
2023-10-29T04:46:44.002Z,12.63
2023-10-29T04:47:43.128Z,12.63
2023-10-29T04:48:43.101Z,12.64
2023-10-29T04:49:43.231Z,12.64
2023-10-29T04:50:43.141Z,12.65
2023-10-29T04:51:43.097Z,12.65
2023-10-29T04:52:43.963Z,12.65
2023-10-29T04:53:42.936Z,12.65
2023-10-29T04:54:42.919Z,12.65
2023-10-29T04:55:42.996Z,12.66
2023-10-29T04:56:43.276Z,12.66
2023-10-29T04:57:43.916Z,12.66
2023-10-29T04:58:42.940Z,12.66
2023-10-29T04:59:42.937Z,12.66
2023-10-29T05:00:42.909Z,12.65
2023-10-29T05:01:42.893Z,12.64
2023-10-29T05:02:45.013Z,12.64
2023-10-29T05:03:42.885Z,12.63
2023-10-29T05:04:42.843Z,12.63
2023-10-29T05:05:42.860Z,12.62
2023-10-29T05:06:42.815Z,12.62
2023-10-29T05:07:42.885Z,12.62
2023-10-29T05:08:43.683Z,12.62
2023-10-29T05:09:42.797Z,12.62
2023-10-29T05:10:42.751Z,12.62
2023-10-29T05:11:42.818Z,12.62
2023-10-29T05:12:42.720Z,12.62
2023-10-29T05:13:43.642Z,12.62
2023-10-29T05:14:42.724Z,12.62
2023-10-29T05:15:42.684Z,12.62
2023-10-29T05:16:42.683Z,12.62
2023-10-29T05:17:42.776Z,12.63
2023-10-29T05:18:43.693Z,12.63
2023-10-29T05:19:42.678Z,12.64
2023-10-29T05:20:42.622Z,12.65
2023-10-29T05:21:42.705Z,12.66
2023-10-29T05:22:42.611Z,12.67
2023-10-29T05:23:42.673Z,12.67
2023-10-29T05:24:43.622Z,12.68
2023-10-29T05:25:42.613Z,12.68
2023-10-29T05:26:42.566Z,12.69
2023-10-29T05:27:42.545Z,12.69
2023-10-29T05:28:42.610Z,12.70
2023-10-29T05:29:42.700Z,12.70
2023-10-29T05:30:43.520Z,12.70
2023-10-29T05:31:42.505Z,12.71
2023-10-29T05:32:42.519Z,12.71
2023-10-29T05:33:42.435Z,12.72
2023-10-29T05:34:42.421Z,12.73
2023-10-29T05:35:42.513Z,12.74
2023-10-29T05:36:43.451Z,12.75
2023-10-29T05:37:42.391Z,12.75
2023-10-29T05:38:42.385Z,12.76
2023-10-29T05:39:42.362Z,12.76
2023-10-29T05:40:42.421Z,12.75
2023-10-29T05:41:42.397Z,12.75
2023-10-29T05:42:43.291Z,12.74
2023-10-29T05:43:42.331Z,12.74
2023-10-29T05:44:42.414Z,12.73
2023-10-29T05:45:42.514Z,12.73
2023-10-29T05:46:42.329Z,12.72
2023-10-29T05:47:43.438Z,12.71
2023-10-29T05:48:42.249Z,12.70
2023-10-29T05:49:42.301Z,12.68
2023-10-29T05:50:42.349Z,12.67
2023-10-29T05:51:42.397Z,12.66
2023-10-29T05:52:42.297Z,12.65
2023-10-29T05:53:43.173Z,12.65
2023-10-29T05:54:42.185Z,12.64
2023-10-29T05:55:42.177Z,12.63
2023-10-29T05:56:42.185Z,12.63
2023-10-29T05:57:42.297Z,12.63
2023-10-29T05:58:43.112Z,12.64
2023-10-29T05:59:42.339Z,12.64
2023-10-29T06:00:42.144Z,12.65
2023-10-29T06:01:42.195Z,12.65
2023-10-29T06:02:42.126Z,12.65
2023-10-29T06:03:43.309Z,12.65
2023-10-29T06:04:42.154Z,12.65
2023-10-29T06:05:42.066Z,12.65
2023-10-29T06:06:42.024Z,12.65
2023-10-29T06:07:42.044Z,12.65
2023-10-29T06:08:43.047Z,12.64
2023-10-29T06:09:42.016Z,12.64
2023-10-29T06:10:42.101Z,12.63
2023-10-29T06:11:42.113Z,12.63
2023-10-29T06:12:42.131Z,12.63
2023-10-29T06:13:41.993Z,12.63
2023-10-29T06:14:42.934Z,12.63
2023-10-29T06:15:41.917Z,12.63
2023-10-29T06:16:41.991Z,12.63
2023-10-29T06:17:41.938Z,12.63
2023-10-29T06:18:41.981Z,12.63
2023-10-29T06:19:41.889Z,12.63
2023-10-29T06:20:42.864Z,12.63
2023-10-29T06:21:41.812Z,12.63
2023-10-29T06:22:41.843Z,12.64
2023-10-29T06:23:41.890Z,12.65
2023-10-29T06:24:41.794Z,12.65
2023-10-29T06:25:42.794Z,12.66
2023-10-29T06:26:41.868Z,12.67
2023-10-29T06:27:41.830Z,12.69
2023-10-29T06:28:41.900Z,12.70
2023-10-29T06:29:41.839Z,12.72
2023-10-29T06:30:41.734Z,12.73
2023-10-29T06:31:42.770Z,12.75
2023-10-29T06:32:41.901Z,12.77
2023-10-29T06:33:41.984Z,12.78
2023-10-29T06:34:41.747Z,12.79
2023-10-29T06:35:41.829Z,12.81
2023-10-29T06:36:41.700Z,12.82
2023-10-29T06:37:42.678Z,12.84
2023-10-29T06:38:41.761Z,12.86
2023-10-29T06:39:41.646Z,12.87
2023-10-29T06:40:41.599Z,12.88
2023-10-29T06:41:41.647Z,12.90
2023-10-29T06:42:41.653Z,12.91
2023-10-29T06:43:42.493Z,12.92
2023-10-29T06:44:41.658Z,12.93
2023-10-29T06:45:41.579Z,12.93
2023-10-29T06:46:41.593Z,12.94
2023-10-29T06:47:41.568Z,12.94
2023-10-29T06:48:42.543Z,12.94
2023-10-29T06:49:41.515Z,12.94
2023-10-29T06:50:41.487Z,12.94
2023-10-29T06:51:41.479Z,12.94
2023-10-29T06:52:41.489Z,12.94
2023-10-29T06:53:41.529Z,12.94
2023-10-29T06:54:42.442Z,12.95
2023-10-29T06:55:41.458Z,12.95
2023-10-29T06:56:41.455Z,12.96
2023-10-29T06:57:41.409Z,12.96
2023-10-29T06:58:41.383Z,12.96
2023-10-29T06:59:41.529Z,12.96
2023-10-29T07:00:42.396Z,12.96
2023-10-29T07:01:41.345Z,12.97
2023-10-29T07:02:41.463Z,12.97
2023-10-29T07:03:41.485Z,12.99
2023-10-29T07:04:41.410Z,13.00
2023-10-29T07:05:41.316Z,13.01
2023-10-29T07:06:43.725Z,13.03
2023-10-29T07:07:41.307Z,13.04
2023-10-29T07:08:41.261Z,13.05
2023-10-29T07:09:41.271Z,13.07
2023-10-29T07:10:41.505Z,13.07
2023-10-29T07:11:41.299Z,13.08
2023-10-29T07:12:42.322Z,13.09
2023-10-29T07:13:41.185Z,13.09
2023-10-29T07:14:41.227Z,13.09
2023-10-29T07:15:41.295Z,13.09
2023-10-29T07:16:41.210Z,13.09
2023-10-29T07:17:42.321Z,13.10
2023-10-29T07:18:41.197Z,13.10
2023-10-29T07:19:41.198Z,13.11
2023-10-29T07:20:41.156Z,13.12
2023-10-29T07:21:41.106Z,13.13
2023-10-29T07:22:41.155Z,13.14
2023-10-29T07:23:42.048Z,13.14
2023-10-29T07:24:41.059Z,13.15
2023-10-29T07:25:41.207Z,13.15
2023-10-29T07:26:41.176Z,13.16
2023-10-29T07:27:41.032Z,13.16
2023-10-29T07:28:41.065Z,13.17
2023-10-29T07:29:41.992Z,13.17
2023-10-29T07:30:41.118Z,13.17
2023-10-29T07:31:41.085Z,13.16
2023-10-29T07:32:41.061Z,13.16
2023-10-29T07:33:41.007Z,13.16
2023-10-29T07:34:40.939Z,13.17
2023-10-29T07:35:41.915Z,13.17
2023-10-29T07:36:40.988Z,13.18
2023-10-29T07:37:40.911Z,13.18
2023-10-29T07:38:40.902Z,13.19
2023-10-29T07:39:40.955Z,13.19
2023-10-29T07:40:41.876Z,13.19
2023-10-29T07:41:40.835Z,13.19
2023-10-29T07:42:41.037Z,13.19
2023-10-29T07:43:40.884Z,13.19
2023-10-29T07:44:40.919Z,13.19
2023-10-29T07:45:41.747Z,13.19
2023-10-29T07:46:40.809Z,13.19
2023-10-29T07:47:40.813Z,13.18
2023-10-29T07:48:40.829Z,13.18
2023-10-29T07:49:40.720Z,13.17
2023-10-29T07:50:40.800Z,13.15
2023-10-29T07:51:41.727Z,13.13
2023-10-29T07:52:40.704Z,13.11
2023-10-29T07:53:40.747Z,13.09
2023-10-29T07:54:40.796Z,13.07
2023-10-29T07:55:40.795Z,13.04
2023-10-29T07:56:40.697Z,13.02
2023-10-29T07:57:41.583Z,12.99
2023-10-29T07:58:40.622Z,12.96
2023-10-29T07:59:40.639Z,12.93
2023-10-29T08:00:40.608Z,12.91
2023-10-29T08:01:40.686Z,12.88
2023-10-29T08:02:41.557Z,12.85
2023-10-29T08:03:40.702Z,12.83
2023-10-29T08:04:40.553Z,12.81
2023-10-29T08:05:40.608Z,12.80
2023-10-29T08:06:40.506Z,12.79
2023-10-29T08:07:41.514Z,12.79
2023-10-29T08:08:40.530Z,12.80
2023-10-29T08:09:40.460Z,12.81
2023-10-29T08:10:40.556Z,12.83
2023-10-29T08:11:40.498Z,12.84
2023-10-29T08:12:40.475Z,12.86
2023-10-29T08:13:41.374Z,12.88
2023-10-29T08:14:40.429Z,12.91
2023-10-29T08:15:43.030Z,12.93
2023-10-29T08:16:40.401Z,12.96
2023-10-29T08:17:40.447Z,13.00
2023-10-29T08:18:40.737Z,13.03
2023-10-29T08:19:41.289Z,13.06
2023-10-29T08:20:40.376Z,13.08
2023-10-29T08:21:40.345Z,13.10
2023-10-29T08:22:40.319Z,13.12
2023-10-29T08:23:40.359Z,13.14
2023-10-29T08:24:41.248Z,13.15
2023-10-29T08:25:40.343Z,13.16
2023-10-29T08:26:40.293Z,13.16
2023-10-29T08:27:40.274Z,13.17
2023-10-29T08:28:40.330Z,13.18
2023-10-29T08:29:40.308Z,13.19
2023-10-29T08:30:41.368Z,13.20
2023-10-29T08:31:40.292Z,13.20
2023-10-29T08:32:40.255Z,13.21
2023-10-29T08:33:40.325Z,13.21
2023-10-29T08:34:40.153Z,13.23
2023-10-29T08:35:45.807Z,13.24
2023-10-29T08:36:40.153Z,13.26
2023-10-29T08:37:40.107Z,13.29
2023-10-29T08:38:40.172Z,13.32
2023-10-29T08:39:40.137Z,13.35
2023-10-29T08:40:40.083Z,13.38
2023-10-29T08:41:41.051Z,13.41
2023-10-29T08:42:40.178Z,13.44
2023-10-29T08:43:40.088Z,13.47
2023-10-29T08:44:40.098Z,13.50
2023-10-29T08:45:42.710Z,13.53
2023-10-29T08:46:40.957Z,13.55
2023-10-29T08:47:40.099Z,13.56
2023-10-29T08:48:40.067Z,13.58
2023-10-29T08:49:40.006Z,13.60
2023-10-29T08:50:40.049Z,13.63
2023-10-29T08:51:40.019Z,13.68
2023-10-29T08:52:45.156Z,13.75
2023-10-29T08:53:40.026Z,13.83
2023-10-29T08:54:39.955Z,13.92
2023-10-29T08:55:39.896Z,13.99
2023-10-29T08:56:39.947Z,14.05
2023-10-29T08:57:40.928Z,14.10
2023-10-29T08:58:39.923Z,14.15
2023-10-29T08:59:40.134Z,14.21
2023-10-29T09:00:46.392Z,14.28
2023-10-29T09:01:41.374Z,14.34
2023-10-29T09:02:39.977Z,14.42
2023-10-29T09:03:40.903Z,14.50
2023-10-29T09:04:39.833Z,14.58
2023-10-29T09:05:39.825Z,14.66
2023-10-29T09:06:39.779Z,14.73
2023-10-29T09:07:39.777Z,14.80
2023-10-29T09:08:39.754Z,14.85
2023-10-29T09:09:40.684Z,14.90
2023-10-29T09:10:39.758Z,14.95
2023-10-29T09:11:39.765Z,15.00
2023-10-29T09:12:40.468Z,15.05
2023-10-29T09:13:39.696Z,15.09
2023-10-29T09:14:40.383Z,15.12
2023-10-29T09:15:40.771Z,15.13
2023-10-29T09:16:39.672Z,15.14
2023-10-29T09:17:39.915Z,15.13
2023-10-29T09:18:39.682Z,15.12
2023-10-29T09:19:39.638Z,15.10
2023-10-29T09:20:39.640Z,15.08
2023-10-29T09:21:40.602Z,15.06
2023-10-29T09:22:39.581Z,15.05
2023-10-29T09:23:39.727Z,15.05
2023-10-29T09:24:39.588Z,15.06
2023-10-29T09:25:39.677Z,15.08
2023-10-29T09:26:39.585Z,15.11
2023-10-29T09:27:40.418Z,15.14
2023-10-29T09:28:39.507Z,15.17
2023-10-29T09:29:39.542Z,15.21
2023-10-29T09:30:39.557Z,15.24
2023-10-29T09:31:39.895Z,15.28
2023-10-29T09:32:39.534Z,15.32
2023-10-29T09:33:40.532Z,15.35
2023-10-29T09:34:39.449Z,15.38
2023-10-29T09:35:40.433Z,15.40
2023-10-29T09:36:39.472Z,15.42
2023-10-29T09:37:39.376Z,15.43
2023-10-29T09:38:39.617Z,15.44
2023-10-29T09:39:40.254Z,15.43
2023-10-29T09:40:39.591Z,15.42
2023-10-29T09:41:39.562Z,15.39
2023-10-29T09:42:39.334Z,15.36
2023-10-29T09:43:39.740Z,15.31
2023-10-29T09:44:40.057Z,15.25
2023-10-29T09:45:40.215Z,15.17
2023-10-29T09:46:39.309Z,15.09
2023-10-29T09:47:39.312Z,15.01
2023-10-29T09:48:39.323Z,14.94
2023-10-29T09:49:39.256Z,14.89
2023-10-29T09:50:39.286Z,14.84
2023-10-29T09:51:40.183Z,14.80
2023-10-29T09:52:39.167Z,14.75
2023-10-29T09:53:39.296Z,14.71
2023-10-29T09:54:39.227Z,14.68
2023-10-29T09:55:39.188Z,14.65
2023-10-29T09:56:40.083Z,14.64
2023-10-29T09:57:39.131Z,14.64
2023-10-29T09:58:39.160Z,14.65
2023-10-29T09:59:39.241Z,14.66
2023-10-29T10:00:39.079Z,14.68
2023-10-29T10:01:55.400Z,14.70
2023-10-29T10:02:40.763Z,14.71
2023-10-29T10:03:39.363Z,14.71
2023-10-29T10:04:40.174Z,14.70
2023-10-29T10:05:39.026Z,14.67
2023-10-29T10:06:40.010Z,14.65
2023-10-29T10:07:38.977Z,14.62
2023-10-29T10:08:39.001Z,14.61
2023-10-29T10:09:39.030Z,14.61
2023-10-29T10:10:38.968Z,14.60
2023-10-29T10:11:39.977Z,14.60
2023-10-29T10:12:39.070Z,14.59
2023-10-29T10:13:38.979Z,14.59
2023-10-29T10:14:38.965Z,14.58
2023-10-29T10:15:38.897Z,14.58
2023-10-29T10:16:38.954Z,14.59
2023-10-29T10:17:40.618Z,14.59
2023-10-29T10:18:38.885Z,14.59
2023-10-29T10:19:39.715Z,14.58
2023-10-29T10:20:38.897Z,14.58
2023-10-29T10:21:39.019Z,14.57
2023-10-29T10:22:39.910Z,14.57
2023-10-29T10:23:38.826Z,14.58
2023-10-29T10:24:38.929Z,14.58
2023-10-29T10:25:38.804Z,14.57
2023-10-29T10:26:38.861Z,14.54
2023-10-29T10:27:39.666Z,14.50
2023-10-29T10:28:38.760Z,14.46
2023-10-29T10:29:38.989Z,14.42
2023-10-29T10:30:38.742Z,14.39
2023-10-29T10:31:38.728Z,14.38
2023-10-29T10:32:38.906Z,14.39
2023-10-29T10:33:39.632Z,14.39
2023-10-29T10:34:38.622Z,14.41
2023-10-29T10:35:38.696Z,14.43
2023-10-29T10:36:38.704Z,14.46
2023-10-29T10:37:38.664Z,14.50
2023-10-29T10:38:39.737Z,14.54
2023-10-29T10:39:38.587Z,14.58
2023-10-29T10:40:38.543Z,14.61
2023-10-29T10:41:38.611Z,14.64
2023-10-29T10:42:38.581Z,14.65
2023-10-29T10:43:38.585Z,14.66
2023-10-29T10:44:39.493Z,14.65
2023-10-29T10:45:38.632Z,14.64
2023-10-29T10:46:38.472Z,14.62
2023-10-29T10:47:38.572Z,14.59
2023-10-29T10:48:38.844Z,14.56
2023-10-29T10:49:39.671Z,14.54
2023-10-29T10:50:38.468Z,14.53
2023-10-29T10:51:38.485Z,14.55
2023-10-29T10:52:38.788Z,14.58
2023-10-29T10:53:39.597Z,14.61
2023-10-29T10:54:39.457Z,14.65
2023-10-29T10:55:54.800Z,14.68
2023-10-29T10:56:39.379Z,14.70
2023-10-29T10:57:38.500Z,14.72
2023-10-29T10:58:38.361Z,14.74
2023-10-29T10:59:38.544Z,14.76
2023-10-29T11:00:39.247Z,14.78
2023-10-29T11:01:38.292Z,14.83
2023-10-29T11:02:38.581Z,14.91
2023-10-29T11:03:38.548Z,15.05
2023-10-29T11:04:38.522Z,15.23
2023-10-29T11:05:40.276Z,15.43
2023-10-29T11:06:39.006Z,15.64
2023-10-29T11:07:38.224Z,15.86
2023-10-29T11:08:38.268Z,16.12
2023-10-29T11:09:38.346Z,16.40
2023-10-29T11:10:38.208Z,16.65
2023-10-29T11:11:39.188Z,16.85
2023-10-29T11:12:38.279Z,17.01
2023-10-29T11:13:38.208Z,17.12
2023-10-29T11:14:38.177Z,17.18
2023-10-29T11:15:38.384Z,17.25
2023-10-29T11:16:39.166Z,17.32
2023-10-29T11:17:38.115Z,17.41
2023-10-29T11:18:38.152Z,17.47
2023-10-29T11:19:38.769Z,17.51
2023-10-29T11:20:38.046Z,17.52
2023-10-29T11:21:38.080Z,17.51
2023-10-29T11:22:39.071Z,17.47
2023-10-29T11:23:38.022Z,17.40
2023-10-29T11:24:40.550Z,17.31
2023-10-29T11:25:38.083Z,17.22
2023-10-29T11:26:38.028Z,17.14
2023-10-29T11:27:38.535Z,17.10
2023-10-29T11:28:38.888Z,17.08
2023-10-29T11:29:38.076Z,17.08
2023-10-29T11:30:37.995Z,17.08
2023-10-29T11:31:37.977Z,17.08
2023-10-29T11:32:38.196Z,17.08
2023-10-29T11:33:37.924Z,17.07
2023-10-29T11:34:38.789Z,17.07
2023-10-29T11:35:37.928Z,17.06
2023-10-29T11:36:37.866Z,17.06
2023-10-29T11:37:37.885Z,17.05
2023-10-29T11:38:37.902Z,17.06
2023-10-29T11:39:44.100Z,17.06
2023-10-29T11:40:37.820Z,17.06
2023-10-29T11:43:38.951Z,18.18
2023-10-29T11:44:38.957Z,17.74
2023-10-29T11:45:38.878Z,17.45
2023-10-29T11:46:39.164Z,17.28
2023-10-29T11:47:38.971Z,17.17
2023-10-29T11:48:39.078Z,17.09
2023-10-29T11:49:45.151Z,17.02
2023-10-29T11:50:38.869Z,16.98
2023-10-29T11:51:38.768Z,16.98
2023-10-29T11:52:38.824Z,17.02
2023-10-29T11:53:39.092Z,17.08
2023-10-29T11:54:39.750Z,17.13
2023-10-29T11:55:38.827Z,17.18
2023-10-29T11:56:38.741Z,17.20
2023-10-29T11:57:38.763Z,17.22
2023-10-29T11:58:38.976Z,17.24
2023-10-29T11:59:38.699Z,17.26
2023-10-29T12:00:39.704Z,17.31
2023-10-29T12:01:40.997Z,17.37
2023-10-29T12:02:41.656Z,17.43
2023-10-29T12:03:38.930Z,17.47
2023-10-29T12:04:38.736Z,17.49
2023-10-29T12:05:38.875Z,17.50
2023-10-29T12:06:39.628Z,17.53
2023-10-29T12:07:38.699Z,17.58
2023-10-29T12:08:38.671Z,17.66
2023-10-29T12:09:38.747Z,17.77
2023-10-29T12:10:38.829Z,17.93
2023-10-29T12:11:39.429Z,18.13
2023-10-29T12:12:40.496Z,18.39
2023-10-29T12:13:38.538Z,18.67
2023-10-29T12:14:38.515Z,18.91
2023-10-29T12:15:38.685Z,19.07
2023-10-29T12:16:38.558Z,19.20
2023-10-29T12:17:39.562Z,19.34
2023-10-29T12:18:38.569Z,19.50
2023-10-29T12:19:38.516Z,19.65
2023-10-29T12:20:39.281Z,19.75
2023-10-29T12:21:38.445Z,19.81
2023-10-29T12:22:39.370Z,19.81
2023-10-29T12:23:38.443Z,19.77
2023-10-29T12:24:38.394Z,19.72
2023-10-29T12:25:38.368Z,19.69
2023-10-29T12:26:39.366Z,19.68
2023-10-29T12:27:39.413Z,19.68
2023-10-29T12:28:38.317Z,19.65
2023-10-29T12:29:38.373Z,19.62
2023-10-29T12:30:38.516Z,19.58
2023-10-29T12:31:38.337Z,19.56
2023-10-29T12:32:38.649Z,19.53
2023-10-29T12:33:39.206Z,19.47
2023-10-29T12:34:38.243Z,19.39
2023-10-29T12:35:38.190Z,19.28
2023-10-29T12:36:38.287Z,19.14
2023-10-29T12:37:38.207Z,19.01
2023-10-29T12:38:39.279Z,18.89
2023-10-29T12:39:38.175Z,18.81
2023-10-29T12:40:38.180Z,18.76
2023-10-29T12:41:38.153Z,18.72
2023-10-29T12:42:38.237Z,18.68
2023-10-29T12:43:38.323Z,18.65
2023-10-29T12:44:39.094Z,18.61
2023-10-29T12:45:38.175Z,18.57
2023-10-29T12:46:38.219Z,18.55
2023-10-29T12:47:38.065Z,18.56
2023-10-29T12:48:38.134Z,18.57
2023-10-29T12:49:38.197Z,18.57
2023-10-29T12:50:39.001Z,18.54
2023-10-29T12:51:38.065Z,18.49
2023-10-29T12:52:38.021Z,18.45
2023-10-29T12:53:38.035Z,18.45
2023-10-29T12:54:38.043Z,18.46